Disclaimer

Please do not use the information listed here in-flight or in-navigation, as they are not provided to us by the airports but are provided by volunteers, so they might be outdated.

Search


Regions


Airport information page

No radio frequency information is available.

Airport informations:
Latitude: 12° 20' 57.84" S
Longitude: 049° 17' 30.29" E
Elevation: 374 feet - 114 meters
Operating hours: NO OPERATING HOURS LISTED
Operating agency: Civil government, landing fees and diplomatic clearance may be required
Timezone: UTC+3
Fuel: Unknown fuel type or whether there is any fuel.

Runway information:
13/31 - 4921 x 98 feet< - >1500 x 30 meters

Recent METARs:
FMNA 131300Z 14016KT 9999 BKN020 27/21 Q1009
FMNA 131400Z 14016KT 9999 BKN020 26/20 Q1010
FMNA 131400Z 14016KT 9999 BKN020 26/20 Q1010

Airport on the map: